sensor_id;sensor_type;location;lat;lon;timestamp;P1;durP1;ratioP1;P2;durP2;ratioP2
65170;SDS011;51757;52.208;5.162;2022-08-30T00:00:21;0.00;;;0.00;;
65170;SDS011;51757;52.208;5.162;2022-08-30T00:03:05;0.00;;;0.00;;
65170;SDS011;51757;52.208;5.162;2022-08-30T00:05:31;0.00;;;0.00;;
65170;SDS011;51757;52.208;5.162;2022-08-30T00:07:57;0.00;;;0.00;;
65170;SDS011;51757;52.208;5.162;2022-08-30T00:10:23;0.00;;;0.00;;
65170;SDS011;51757;52.208;5.162;2022-08-30T00:12:49;0.00;;;0.00;;
65170;SDS011;51757;52.208;5.162;2022-08-30T00:15:15;0.00;;;0.00;;
65170;SDS011;51757;52.208;5.162;2022-08-30T00:17:42;0.00;;;0.00;;
65170;SDS011;51757;52.208;5.162;2022-08-30T00:20:09;0.00;;;0.00;;
65170;SDS011;51757;52.208;5.162;2022-08-30T00:22:36;0.00;;;0.00;;
65170;SDS011;51757;52.208;5.162;2022-08-30T00:25:02;0.00;;;0.00;;
65170;SDS011;51757;52.208;5.162;2022-08-30T00:27:28;0.00;;;0.00;;
65170;SDS011;51757;52.208;5.162;2022-08-30T00:29:54;0.00;;;0.00;;
65170;SDS011;51757;52.208;5.162;2022-08-30T00:32:20;0.00;;;0.00;;
65170;SDS011;51757;52.208;5.162;2022-08-30T00:34:49;0.00;;;0.00;;
65170;SDS011;51757;52.208;5.162;2022-08-30T00:37:15;0.00;;;0.00;;
65170;SDS011;51757;52.208;5.162;2022-08-30T00:39:43;0.00;;;0.00;;
65170;SDS011;51757;52.208;5.162;2022-08-30T00:42:17;0.00;;;0.00;;
65170;SDS011;51757;52.208;5.162;2022-08-30T00:44:56;0.00;;;0.00;;
65170;SDS011;51757;52.208;5.162;2022-08-30T00:47:24;0.00;;;0.00;;
65170;SDS011;51757;52.208;5.162;2022-08-30T00:49:59;0.00;;;0.00;;
65170;SDS011;51757;52.208;5.162;2022-08-30T00:52:25;0.00;;;0.00;;
65170;SDS011;51757;52.208;5.162;2022-08-30T00:54:53;0.00;;;0.00;;
65170;SDS011;51757;52.208;5.162;2022-08-30T00:57:18;0.00;;;0.00;;
65170;SDS011;51757;52.208;5.162;2022-08-30T00:59:57;0.00;;;0.00;;
65170;SDS011;51757;52.208;5.162;2022-08-30T01:02:22;0.00;;;0.00;;
65170;SDS011;51757;52.208;5.162;2022-08-30T01:04:54;0.00;;;0.00;;
65170;SDS011;51757;52.208;5.162;2022-08-30T01:07:21;0.00;;;0.00;;
65170;SDS011;51757;52.208;5.162;2022-08-30T01:09:52;0.00;;;0.00;;
65170;SDS011;51757;52.208;5.162;2022-08-30T01:12:23;0.00;;;0.00;;
65170;SDS011;51757;52.208;5.162;2022-08-30T01:14:54;0.00;;;0.00;;
65170;SDS011;51757;52.208;5.162;2022-08-30T01:17:24;0.00;;;0.00;;
65170;SDS011;51757;52.208;5.162;2022-08-30T01:23:10;0.00;;;0.00;;
65170;SDS011;51757;52.208;5.162;2022-08-30T01:25:40;0.00;;;0.00;;
65170;SDS011;51757;52.208;5.162;2022-08-30T01:28:13;0.00;;;0.00;;
65170;SDS011;51757;52.208;5.162;2022-08-30T01:30:42;0.00;;;0.00;;
65170;SDS011;51757;52.208;5.162;2022-08-30T01:33:15;0.00;;;0.00;;
65170;SDS011;51757;52.208;5.162;2022-08-30T01:38:24;0.00;;;0.00;;
65170;SDS011;51757;52.208;5.162;2022-08-30T01:41:11;0.00;;;0.00;;
65170;SDS011;51757;52.208;5.162;2022-08-30T01:43:39;0.00;;;0.00;;
65170;SDS011;51757;52.208;5.162;2022-08-30T01:46:08;0.00;;;0.00;;
65170;SDS011;51757;52.208;5.162;2022-08-30T01:48:43;0.00;;;0.00;;
65170;SDS011;51757;52.208;5.162;2022-08-30T01:51:20;0.00;;;0.00;;
65170;SDS011;51757;52.208;5.162;2022-08-30T01:53:56;0.00;;;0.00;;
65170;SDS011;51757;52.208;5.162;2022-08-30T01:56:26;0.00;;;0.00;;
65170;SDS011;51757;52.208;5.162;2022-08-30T01:59:03;0.00;;;0.00;;
65170;SDS011;51757;52.208;5.162;2022-08-30T02:01:32;0.00;;;0.00;;
65170;SDS011;51757;52.208;5.162;2022-08-30T02:04:06;0.00;;;0.00;;
65170;SDS011;51757;52.208;5.162;2022-08-30T02:06:36;0.00;;;0.00;;
65170;SDS011;51757;52.208;5.162;2022-08-30T02:09:15;0.00;;;0.00;;
65170;SDS011;51757;52.208;5.162;2022-08-30T02:11:41;0.00;;;0.00;;
65170;SDS011;51757;52.208;5.162;2022-08-30T02:14:07;0.00;;;0.00;;
65170;SDS011;51757;52.208;5.162;2022-08-30T02:16:43;0.00;;;0.00;;
65170;SDS011;51757;52.208;5.162;2022-08-30T02:19:20;0.00;;;0.00;;
65170;SDS011;51757;52.208;5.162;2022-08-30T02:21:59;0.00;;;0.00;;
65170;SDS011;51757;52.208;5.162;2022-08-30T02:24:38;0.00;;;0.00;;
65170;SDS011;51757;52.208;5.162;2022-08-30T02:27:14;0.00;;;0.00;;
65170;SDS011;51757;52.208;5.162;2022-08-30T02:29:52;0.00;;;0.00;;
65170;SDS011;51757;52.208;5.162;2022-08-30T02:32:18;0.00;;;0.00;;
65170;SDS011;51757;52.208;5.162;2022-08-30T02:34:52;0.00;;;0.00;;
65170;SDS011;51757;52.208;5.162;2022-08-30T02:37:21;0.00;;;0.00;;
65170;SDS011;51757;52.208;5.162;2022-08-30T02:39:49;0.00;;;0.00;;
65170;SDS011;51757;52.208;5.162;2022-08-30T02:42:17;0.00;;;0.00;;
65170;SDS011;51757;52.208;5.162;2022-08-30T02:44:50;0.00;;;0.00;;
65170;SDS011;51757;52.208;5.162;2022-08-30T02:47:29;0.00;;;0.00;;
65170;SDS011;51757;52.208;5.162;2022-08-30T02:49:57;0.00;;;0.00;;
65170;SDS011;51757;52.208;5.162;2022-08-30T02:52:34;0.00;;;0.00;;
65170;SDS011;51757;52.208;5.162;2022-08-30T02:55:03;0.00;;;0.00;;
65170;SDS011;51757;52.208;5.162;2022-08-30T02:57:35;0.00;;;0.00;;
65170;SDS011;51757;52.208;5.162;2022-08-30T03:00:27;0.00;;;0.00;;
65170;SDS011;51757;52.208;5.162;2022-08-30T03:02:56;0.00;;;0.00;;
65170;SDS011;51757;52.208;5.162;2022-08-30T03:05:27;0.00;;;0.00;;
65170;SDS011;51757;52.208;5.162;2022-08-30T03:07:55;0.00;;;0.00;;
65170;SDS011;51757;52.208;5.162;2022-08-30T03:10:33;0.00;;;0.00;;
65170;SDS011;51757;52.208;5.162;2022-08-30T03:13:02;0.00;;;0.00;;
65170;SDS011;51757;52.208;5.162;2022-08-30T03:15:30;0.00;;;0.00;;
65170;SDS011;51757;52.208;5.162;2022-08-30T03:17:56;0.00;;;0.00;;
65170;SDS011;51757;52.208;5.162;2022-08-30T03:20:22;0.00;;;0.00;;
65170;SDS011;51757;52.208;5.162;2022-08-30T03:22:48;0.00;;;0.00;;
65170;SDS011;51757;52.208;5.162;2022-08-30T03:25:19;0.00;;;0.00;;
65170;SDS011;51757;52.208;5.162;2022-08-30T03:28:05;0.00;;;0.00;;
65170;SDS011;51757;52.208;5.162;2022-08-30T03:30:39;0.00;;;0.00;;
65170;SDS011;51757;52.208;5.162;2022-08-30T03:33:07;0.00;;;0.00;;
65170;SDS011;51757;52.208;5.162;2022-08-30T03:35:33;0.00;;;0.00;;
65170;SDS011;51757;52.208;5.162;2022-08-30T03:37:59;0.00;;;0.00;;
65170;SDS011;51757;52.208;5.162;2022-08-30T03:40:29;0.00;;;0.00;;
65170;SDS011;51757;52.208;5.162;2022-08-30T03:42:57;0.00;;;0.00;;
65170;SDS011;51757;52.208;5.162;2022-08-30T03:45:23;0.00;;;0.00;;
65170;SDS011;51757;52.208;5.162;2022-08-30T03:47:48;0.00;;;0.00;;
65170;SDS011;51757;52.208;5.162;2022-08-30T03:50:18;0.00;;;0.00;;
65170;SDS011;51757;52.208;5.162;2022-08-30T03:52:49;0.00;;;0.00;;
65170;SDS011;51757;52.208;5.162;2022-08-30T03:55:17;0.00;;;0.00;;
65170;SDS011;51757;52.208;5.162;2022-08-30T03:58:03;0.00;;;0.00;;
65170;SDS011;51757;52.208;5.162;2022-08-30T04:00:30;0.00;;;0.00;;
65170;SDS011;51757;52.208;5.162;2022-08-30T04:03:01;0.00;;;0.00;;
65170;SDS011;51757;52.208;5.162;2022-08-30T04:05:31;0.00;;;0.00;;
65170;SDS011;51757;52.208;5.162;2022-08-30T04:07:57;0.00;;;0.00;;
65170;SDS011;51757;52.208;5.162;2022-08-30T04:10:35;0.00;;;0.00;;
65170;SDS011;51757;52.208;5.162;2022-08-30T04:13:01;0.00;;;0.00;;
65170;SDS011;51757;52.208;5.162;2022-08-30T04:15:34;0.00;;;0.00;;
65170;SDS011;51757;52.208;5.162;2022-08-30T04:18:05;0.00;;;0.00;;
65170;SDS011;51757;52.208;5.162;2022-08-30T04:20:36;0.00;;;0.00;;
65170;SDS011;51757;52.208;5.162;2022-08-30T04:23:02;0.00;;;0.00;;
65170;SDS011;51757;52.208;5.162;2022-08-30T04:25:31;0.00;;;0.00;;
65170;SDS011;51757;52.208;5.162;2022-08-30T04:27:57;0.00;;;0.00;;
65170;SDS011;51757;52.208;5.162;2022-08-30T04:30:36;0.00;;;0.00;;
65170;SDS011;51757;52.208;5.162;2022-08-30T04:45:41;0.00;;;0.00;;
65170;SDS011;51757;52.208;5.162;2022-08-30T04:48:24;0.00;;;0.00;;
65170;SDS011;51757;52.208;5.162;2022-08-30T04:51:08;0.00;;;0.00;;
65170;SDS011;51757;52.208;5.162;2022-08-30T04:53:51;0.00;;;0.00;;
65170;SDS011;51757;52.208;5.162;2022-08-30T04:56:18;0.00;;;0.00;;
65170;SDS011;51757;52.208;5.162;2022-08-30T04:58:54;0.00;;;0.00;;
65170;SDS011;51757;52.208;5.162;2022-08-30T05:01:29;0.00;;;0.00;;
65170;SDS011;51757;52.208;5.162;2022-08-30T05:04:20;0.00;;;0.00;;
65170;SDS011;51757;52.208;5.162;2022-08-30T05:06:49;0.00;;;0.00;;
65170;SDS011;51757;52.208;5.162;2022-08-30T05:09:14;0.00;;;0.00;;
65170;SDS011;51757;52.208;5.162;2022-08-30T05:11:40;0.00;;;0.00;;
65170;SDS011;51757;52.208;5.162;2022-08-30T05:14:14;0.00;;;0.00;;
65170;SDS011;51757;52.208;5.162;2022-08-30T05:16:47;0.00;;;0.00;;
65170;SDS011;51757;52.208;5.162;2022-08-30T05:22:16;0.00;;;0.00;;
65170;SDS011;51757;52.208;5.162;2022-08-30T05:24:52;0.00;;;0.00;;
65170;SDS011;51757;52.208;5.162;2022-08-30T05:29:43;0.00;;;0.00;;
65170;SDS011;51757;52.208;5.162;2022-08-30T05:32:17;0.00;;;0.00;;
65170;SDS011;51757;52.208;5.162;2022-08-30T05:34:53;0.00;;;0.00;;
65170;SDS011;51757;52.208;5.162;2022-08-30T05:37:21;0.00;;;0.00;;
65170;SDS011;51757;52.208;5.162;2022-08-30T05:39:50;0.00;;;0.00;;
65170;SDS011;51757;52.208;5.162;2022-08-30T05:42:26;0.00;;;0.00;;
65170;SDS011;51757;52.208;5.162;2022-08-30T05:44:55;0.00;;;0.00;;
65170;SDS011;51757;52.208;5.162;2022-08-30T05:47:29;0.00;;;0.00;;
65170;SDS011;51757;52.208;5.162;2022-08-30T05:49:55;0.00;;;0.00;;
65170;SDS011;51757;52.208;5.162;2022-08-30T05:52:33;0.00;;;0.00;;
65170;SDS011;51757;52.208;5.162;2022-08-30T05:55:06;0.00;;;0.00;;
65170;SDS011;51757;52.208;5.162;2022-08-30T05:57:36;0.00;;;0.00;;
65170;SDS011;51757;52.208;5.162;2022-08-30T06:00:04;0.00;;;0.00;;
65170;SDS011;51757;52.208;5.162;2022-08-30T06:02:32;0.00;;;0.00;;
65170;SDS011;51757;52.208;5.162;2022-08-30T06:05:00;0.00;;;0.00;;
65170;SDS011;51757;52.208;5.162;2022-08-30T06:07:29;0.00;;;0.00;;
65170;SDS011;51757;52.208;5.162;2022-08-30T06:09:55;0.00;;;0.00;;
65170;SDS011;51757;52.208;5.162;2022-08-30T06:12:20;0.00;;;0.00;;
65170;SDS011;51757;52.208;5.162;2022-08-30T06:14:46;0.00;;;0.00;;
65170;SDS011;51757;52.208;5.162;2022-08-30T06:17:12;0.00;;;0.00;;
65170;SDS011;51757;52.208;5.162;2022-08-30T06:19:37;0.00;;;0.00;;
65170;SDS011;51757;52.208;5.162;2022-08-30T06:22:03;0.00;;;0.00;;
65170;SDS011;51757;52.208;5.162;2022-08-30T06:24:32;0.00;;;0.00;;
65170;SDS011;51757;52.208;5.162;2022-08-30T06:27:00;0.00;;;0.00;;
65170;SDS011;51757;52.208;5.162;2022-08-30T06:29:30;0.00;;;0.00;;
65170;SDS011;51757;52.208;5.162;2022-08-30T06:31:56;0.00;;;0.00;;
65170;SDS011;51757;52.208;5.162;2022-08-30T06:34:24;0.00;;;0.00;;
65170;SDS011;51757;52.208;5.162;2022-08-30T06:36:51;0.00;;;0.00;;
65170;SDS011;51757;52.208;5.162;2022-08-30T06:39:16;0.00;;;0.00;;
65170;SDS011;51757;52.208;5.162;2022-08-30T06:41:44;0.00;;;0.00;;
65170;SDS011;51757;52.208;5.162;2022-08-30T06:44:12;0.00;;;0.00;;
65170;SDS011;51757;52.208;5.162;2022-08-30T06:46:46;0.00;;;0.00;;
65170;SDS011;51757;52.208;5.162;2022-08-30T06:49:14;0.00;;;0.00;;
65170;SDS011;51757;52.208;5.162;2022-08-30T06:51:41;0.00;;;0.00;;
65170;SDS011;51757;52.208;5.162;2022-08-30T06:54:07;0.00;;;0.00;;
65170;SDS011;51757;52.208;5.162;2022-08-30T06:56:32;0.00;;;0.00;;
65170;SDS011;51757;52.208;5.162;2022-08-30T06:59:04;0.00;;;0.00;;
65170;SDS011;51757;52.208;5.162;2022-08-30T07:01:30;0.00;;;0.00;;
65170;SDS011;51757;52.208;5.162;2022-08-30T07:03:56;0.00;;;0.00;;
65170;SDS011;51757;52.208;5.162;2022-08-30T07:06:25;0.00;;;0.00;;
65170;SDS011;51757;52.208;5.162;2022-08-30T07:08:53;0.00;;;0.00;;
65170;SDS011;51757;52.208;5.162;2022-08-30T07:11:26;0.00;;;0.00;;
65170;SDS011;51757;52.208;5.162;2022-08-30T07:13:56;0.00;;;0.00;;
65170;SDS011;51757;52.208;5.162;2022-08-30T07:16:53;0.00;;;0.00;;
65170;SDS011;51757;52.208;5.162;2022-08-30T07:19:21;0.00;;;0.00;;
65170;SDS011;51757;52.208;5.162;2022-08-30T07:21:47;0.00;;;0.00;;
65170;SDS011;51757;52.208;5.162;2022-08-30T07:24:18;0.00;;;0.00;;
65170;SDS011;51757;52.208;5.162;2022-08-30T07:26:51;0.08;;;0.03;;
65170;SDS011;51757;52.208;5.162;2022-08-30T07:29:22;0.20;;;0.17;;
65170;SDS011;51757;52.208;5.162;2022-08-30T07:31:57;0.10;;;0.10;;
65170;SDS011;51757;52.208;5.162;2022-08-30T07:34:23;0.25;;;0.10;;
65170;SDS011;51757;52.208;5.162;2022-08-30T07:36:51;0.00;;;0.00;;
65170;SDS011;51757;52.208;5.162;2022-08-30T07:39:19;0.00;;;0.00;;
65170;SDS011;51757;52.208;5.162;2022-08-30T07:41:57;0.00;;;0.00;;
65170;SDS011;51757;52.208;5.162;2022-08-30T07:44:23;0.10;;;0.00;;
65170;SDS011;51757;52.208;5.162;2022-08-30T07:46:48;0.00;;;0.00;;
65170;SDS011;51757;52.208;5.162;2022-08-30T07:49:27;0.00;;;0.00;;
65170;SDS011;51757;52.208;5.162;2022-08-30T07:51:52;0.00;;;0.00;;
65170;SDS011;51757;52.208;5.162;2022-08-30T07:54:22;0.00;;;0.00;;
65170;SDS011;51757;52.208;5.162;2022-08-30T07:56:48;0.00;;;0.00;;
65170;SDS011;51757;52.208;5.162;2022-08-30T07:59:22;0.10;;;0.00;;
65170;SDS011;51757;52.208;5.162;2022-08-30T08:01:50;0.20;;;0.00;;
65170;SDS011;51757;52.208;5.162;2022-08-30T08:04:19;0.00;;;0.00;;
65170;SDS011;51757;52.208;5.162;2022-08-30T08:06:44;0.00;;;0.00;;
65170;SDS011;51757;52.208;5.162;2022-08-30T08:09:12;0.00;;;0.00;;
65170;SDS011;51757;52.208;5.162;2022-08-30T08:11:44;0.00;;;0.00;;
65170;SDS011;51757;52.208;5.162;2022-08-30T08:14:10;0.00;;;0.00;;
65170;SDS011;51757;52.208;5.162;2022-08-30T08:16:36;0.00;;;0.00;;
65170;SDS011;51757;52.208;5.162;2022-08-30T08:19:05;0.00;;;0.00;;
65170;SDS011;51757;52.208;5.162;2022-08-30T08:21:33;0.00;;;0.00;;
65170;SDS011;51757;52.208;5.162;2022-08-30T08:24:04;0.20;;;0.15;;
65170;SDS011;51757;52.208;5.162;2022-08-30T08:26:42;0.00;;;0.00;;
65170;SDS011;51757;52.208;5.162;2022-08-30T08:29:16;0.00;;;0.00;;
65170;SDS011;51757;52.208;5.162;2022-08-30T08:31:42;0.00;;;0.00;;
65170;SDS011;51757;52.208;5.162;2022-08-30T08:34:21;0.00;;;0.00;;
65170;SDS011;51757;52.208;5.162;2022-08-30T08:36:59;0.08;;;0.00;;
65170;SDS011;51757;52.208;5.162;2022-08-30T08:39:28;0.00;;;0.00;;
65170;SDS011;51757;52.208;5.162;2022-08-30T08:44:59;0.00;;;0.00;;
65170;SDS011;51757;52.208;5.162;2022-08-30T08:47:34;0.00;;;0.00;;
65170;SDS011;51757;52.208;5.162;2022-08-30T08:50:29;0.00;;;0.00;;
65170;SDS011;51757;52.208;5.162;2022-08-30T08:52:57;0.00;;;0.00;;
65170;SDS011;51757;52.208;5.162;2022-08-30T08:55:50;0.00;;;0.00;;
65170;SDS011;51757;52.208;5.162;2022-08-30T08:58:30;0.00;;;0.00;;
65170;SDS011;51757;52.208;5.162;2022-08-30T09:01:04;0.00;;;0.00;;
65170;SDS011;51757;52.208;5.162;2022-08-30T09:03:33;0.00;;;0.00;;
65170;SDS011;51757;52.208;5.162;2022-08-30T09:06:00;0.00;;;0.00;;
65170;SDS011;51757;52.208;5.162;2022-08-30T09:08:31;0.00;;;0.00;;
65170;SDS011;51757;52.208;5.162;2022-08-30T09:11:02;0.00;;;0.00;;
65170;SDS011;51757;52.208;5.162;2022-08-30T09:13:35;0.00;;;0.00;;
65170;SDS011;51757;52.208;5.162;2022-08-30T09:16:00;0.00;;;0.00;;
65170;SDS011;51757;52.208;5.162;2022-08-30T09:18:40;0.00;;;0.00;;
65170;SDS011;51757;52.208;5.162;2022-08-30T09:21:08;0.00;;;0.00;;
65170;SDS011;51757;52.208;5.162;2022-08-30T09:23:45;0.00;;;0.00;;
65170;SDS011;51757;52.208;5.162;2022-08-30T09:26:29;0.00;;;0.00;;
65170;SDS011;51757;52.208;5.162;2022-08-30T09:28:55;0.00;;;0.00;;
65170;SDS011;51757;52.208;5.162;2022-08-30T09:31:23;0.00;;;0.00;;
65170;SDS011;51757;52.208;5.162;2022-08-30T09:36:31;0.00;;;0.00;;
65170;SDS011;51757;52.208;5.162;2022-08-30T09:42:41;0.00;;;0.00;;
65170;SDS011;51757;52.208;5.162;2022-08-30T09:44:47;0.00;;;0.00;;
65170;SDS011;51757;52.208;5.162;2022-08-30T09:47:17;0.00;;;0.00;;
65170;SDS011;51757;52.208;5.162;2022-08-30T09:49:46;0.00;;;0.00;;
65170;SDS011;51757;52.208;5.162;2022-08-30T09:55:16;0.00;;;0.00;;
65170;SDS011;51757;52.208;5.162;2022-08-30T10:00:23;0.00;;;0.00;;
65170;SDS011;51757;52.208;5.162;2022-08-30T10:05:56;0.00;;;0.00;;
65170;SDS011;51757;52.208;5.162;2022-08-30T10:11:10;0.00;;;0.00;;
65170;SDS011;51757;52.208;5.162;2022-08-30T10:24:52;0.00;;;0.00;;
65170;SDS011;51757;52.208;5.162;2022-08-30T10:27:47;0.00;;;0.00;;
65170;SDS011;51757;52.208;5.162;2022-08-30T10:30:15;0.00;;;0.00;;
65170;SDS011;51757;52.208;5.162;2022-08-30T10:39:09;0.05;;;0.00;;
65170;SDS011;51757;52.208;5.162;2022-08-30T10:41:42;0.00;;;0.00;;
65170;SDS011;51757;52.208;5.162;2022-08-30T10:44:26;0.00;;;0.00;;
65170;SDS011;51757;52.208;5.162;2022-08-30T10:49:39;0.00;;;0.00;;
65170;SDS011;51757;52.208;5.162;2022-08-30T10:57:33;0.00;;;0.00;;
65170;SDS011;51757;52.208;5.162;2022-08-30T11:11:11;0.00;;;0.00;;
65170;SDS011;51757;52.208;5.162;2022-08-30T11:14:05;0.00;;;0.00;;
65170;SDS011;51757;52.208;5.162;2022-08-30T11:16:46;0.00;;;0.00;;
65170;SDS011;51757;52.208;5.162;2022-08-30T11:22:12;0.00;;;0.00;;
65170;SDS011;51757;52.208;5.162;2022-08-30T11:33:02;0.00;;;0.00;;
65170;SDS011;51757;52.208;5.162;2022-08-30T11:35:41;0.00;;;0.00;;
65170;SDS011;51757;52.208;5.162;2022-08-30T11:38:56;0.10;;;0.00;;
65170;SDS011;51757;52.208;5.162;2022-08-30T11:41:27;0.00;;;0.00;;
65170;SDS011;51757;52.208;5.162;2022-08-30T11:47:36;0.00;;;0.00;;
65170;SDS011;51757;52.208;5.162;2022-08-30T11:55:47;0.00;;;0.00;;
65170;SDS011;51757;52.208;5.162;2022-08-30T12:08:41;0.00;;;0.00;;
65170;SDS011;51757;52.208;5.162;2022-08-30T12:13:58;0.00;;;0.00;;
65170;SDS011;51757;52.208;5.162;2022-08-30T12:16:45;0.00;;;0.00;;
65170;SDS011;51757;52.208;5.162;2022-08-30T12:19:31;0.00;;;0.00;;
65170;SDS011;51757;52.208;5.162;2022-08-30T12:22:26;0.00;;;0.00;;
65170;SDS011;51757;52.208;5.162;2022-08-30T12:25:12;0.00;;;0.00;;
65170;SDS011;51757;52.208;5.162;2022-08-30T12:28:08;0.00;;;0.00;;
65170;SDS011;51757;52.208;5.162;2022-08-30T12:31:05;0.00;;;0.00;;
65170;SDS011;51757;52.208;5.162;2022-08-30T12:33:59;0.00;;;0.00;;
65170;SDS011;51757;52.208;5.162;2022-08-30T12:37:19;0.00;;;0.00;;
65170;SDS011;51757;52.208;5.162;2022-08-30T12:43:13;0.17;;;0.00;;
65170;SDS011;51757;52.208;5.162;2022-08-30T12:46:09;0.00;;;0.00;;
65170;SDS011;51757;52.208;5.162;2022-08-30T12:48:50;0.00;;;0.00;;
65170;SDS011;51757;52.208;5.162;2022-08-30T12:51:47;0.00;;;0.00;;
65170;SDS011;51757;52.208;5.162;2022-08-30T12:54:17;0.00;;;0.00;;
65170;SDS011;51757;52.208;5.162;2022-08-30T12:56:49;0.00;;;0.00;;
65170;SDS011;51757;52.208;5.162;2022-08-30T12:59:41;0.45;;;0.00;;
65170;SDS011;51757;52.208;5.162;2022-08-30T13:02:23;0.00;;;0.00;;
65170;SDS011;51757;52.208;5.162;2022-08-30T13:13:33;0.00;;;0.00;;
65170;SDS011;51757;52.208;5.162;2022-08-30T13:18:43;0.00;;;0.00;;
65170;SDS011;51757;52.208;5.162;2022-08-30T13:24:18;0.00;;;0.00;;
65170;SDS011;51757;52.208;5.162;2022-08-30T13:26:57;0.00;;;0.00;;
65170;SDS011;51757;52.208;5.162;2022-08-30T13:29:30;0.00;;;0.00;;
65170;SDS011;51757;52.208;5.162;2022-08-30T13:32:06;0.00;;;0.00;;
65170;SDS011;51757;52.208;5.162;2022-08-30T13:34:46;0.00;;;0.00;;
65170;SDS011;51757;52.208;5.162;2022-08-30T13:37:22;0.00;;;0.00;;
65170;SDS011;51757;52.208;5.162;2022-08-30T13:40:21;0.00;;;0.00;;
65170;SDS011;51757;52.208;5.162;2022-08-30T13:42:54;0.05;;;0.00;;
65170;SDS011;51757;52.208;5.162;2022-08-30T13:45:23;0.00;;;0.00;;
65170;SDS011;51757;52.208;5.162;2022-08-30T13:47:51;0.00;;;0.00;;
65170;SDS011;51757;52.208;5.162;2022-08-30T13:50:19;0.00;;;0.00;;
65170;SDS011;51757;52.208;5.162;2022-08-30T13:52:45;0.00;;;0.00;;
65170;SDS011;51757;52.208;5.162;2022-08-30T13:55:19;0.00;;;0.00;;
65170;SDS011;51757;52.208;5.162;2022-08-30T13:57:55;0.00;;;0.00;;
65170;SDS011;51757;52.208;5.162;2022-08-30T14:00:26;0.00;;;0.00;;
65170;SDS011;51757;52.208;5.162;2022-08-30T14:03:04;0.00;;;0.00;;
65170;SDS011;51757;52.208;5.162;2022-08-30T14:08:01;0.00;;;0.00;;
65170;SDS011;51757;52.208;5.162;2022-08-30T14:10:35;0.00;;;0.00;;
65170;SDS011;51757;52.208;5.162;2022-08-30T14:13:04;0.00;;;0.00;;
65170;SDS011;51757;52.208;5.162;2022-08-30T14:15:34;0.00;;;0.00;;
65170;SDS011;51757;52.208;5.162;2022-08-30T14:18:10;0.00;;;0.00;;
65170;SDS011;51757;52.208;5.162;2022-08-30T14:20:43;0.00;;;0.00;;
65170;SDS011;51757;52.208;5.162;2022-08-30T14:23:09;0.00;;;0.00;;
65170;SDS011;51757;52.208;5.162;2022-08-30T14:25:39;0.05;;;0.05;;
65170;SDS011;51757;52.208;5.162;2022-08-30T14:28:12;0.00;;;0.00;;
65170;SDS011;51757;52.208;5.162;2022-08-30T14:30:38;0.00;;;0.00;;
65170;SDS011;51757;52.208;5.162;2022-08-30T14:33:16;0.00;;;0.00;;
65170;SDS011;51757;52.208;5.162;2022-08-30T14:35:41;0.00;;;0.00;;
65170;SDS011;51757;52.208;5.162;2022-08-30T14:38:13;0.00;;;0.00;;
65170;SDS011;51757;52.208;5.162;2022-08-30T14:40:41;0.10;;;0.10;;
65170;SDS011;51757;52.208;5.162;2022-08-30T14:43:12;0.10;;;0.10;;
65170;SDS011;51757;52.208;5.162;2022-08-30T14:45:49;0.10;;;0.10;;
65170;SDS011;51757;52.208;5.162;2022-08-30T14:48:17;0.20;;;0.20;;
65170;SDS011;51757;52.208;5.162;2022-08-30T14:50:47;0.20;;;0.20;;
65170;SDS011;51757;52.208;5.162;2022-08-30T14:53:23;0.30;;;0.30;;
65170;SDS011;51757;52.208;5.162;2022-08-30T14:55:54;0.30;;;0.30;;
65170;SDS011;51757;52.208;5.162;2022-08-30T14:58:22;0.20;;;0.20;;
65170;SDS011;51757;52.208;5.162;2022-08-30T15:00:53;0.30;;;0.30;;
65170;SDS011;51757;52.208;5.162;2022-08-30T15:03:22;0.20;;;0.20;;
65170;SDS011;51757;52.208;5.162;2022-08-30T15:05:55;0.40;;;0.40;;
65170;SDS011;51757;52.208;5.162;2022-08-30T15:08:25;0.40;;;0.40;;
65170;SDS011;51757;52.208;5.162;2022-08-30T15:13:37;0.30;;;0.30;;
65170;SDS011;51757;52.208;5.162;2022-08-30T15:16:18;0.30;;;0.30;;
65170;SDS011;51757;52.208;5.162;2022-08-30T15:18:54;0.20;;;0.20;;
65170;SDS011;51757;52.208;5.162;2022-08-30T15:21:28;0.30;;;0.30;;
65170;SDS011;51757;52.208;5.162;2022-08-30T15:23:59;0.20;;;0.20;;
65170;SDS011;51757;52.208;5.162;2022-08-30T15:26:39;0.30;;;0.30;;
65170;SDS011;51757;52.208;5.162;2022-08-30T15:29:15;0.30;;;0.30;;
65170;SDS011;51757;52.208;5.162;2022-08-30T15:31:44;0.30;;;0.30;;
65170;SDS011;51757;52.208;5.162;2022-08-30T15:34:11;0.20;;;0.20;;
65170;SDS011;51757;52.208;5.162;2022-08-30T15:36:41;0.10;;;0.10;;
65170;SDS011;51757;52.208;5.162;2022-08-30T15:39:10;0.20;;;0.20;;
65170;SDS011;51757;52.208;5.162;2022-08-30T15:41:52;0.10;;;0.10;;
65170;SDS011;51757;52.208;5.162;2022-08-30T15:44:33;0.08;;;0.08;;
65170;SDS011;51757;52.208;5.162;2022-08-30T15:47:11;0.10;;;0.10;;
65170;SDS011;51757;52.208;5.162;2022-08-30T15:49:51;0.10;;;0.10;;
65170;SDS011;51757;52.208;5.162;2022-08-30T15:52:35;0.10;;;0.10;;
65170;SDS011;51757;52.208;5.162;2022-08-30T15:55:09;0.10;;;0.10;;
65170;SDS011;51757;52.208;5.162;2022-08-30T15:57:41;0.10;;;0.10;;
65170;SDS011;51757;52.208;5.162;2022-08-30T16:00:15;0.20;;;0.20;;
65170;SDS011;51757;52.208;5.162;2022-08-30T16:02:46;0.20;;;0.20;;
65170;SDS011;51757;52.208;5.162;2022-08-30T16:05:44;0.20;;;0.20;;
65170;SDS011;51757;52.208;5.162;2022-08-30T16:08:34;0.20;;;0.20;;
65170;SDS011;51757;52.208;5.162;2022-08-30T16:11:13;0.30;;;0.30;;
65170;SDS011;51757;52.208;5.162;2022-08-30T16:13:42;0.40;;;0.40;;
65170;SDS011;51757;52.208;5.162;2022-08-30T16:18:58;0.20;;;0.20;;
65170;SDS011;51757;52.208;5.162;2022-08-30T16:21:39;0.20;;;0.20;;
65170;SDS011;51757;52.208;5.162;2022-08-30T16:24:40;0.20;;;0.20;;
65170;SDS011;51757;52.208;5.162;2022-08-30T16:27:14;0.10;;;0.10;;
65170;SDS011;51757;52.208;5.162;2022-08-30T16:29:42;0.10;;;0.10;;
65170;SDS011;51757;52.208;5.162;2022-08-30T16:32:20;0.10;;;0.10;;
65170;SDS011;51757;52.208;5.162;2022-08-30T16:35:22;0.10;;;0.10;;
65170;SDS011;51757;52.208;5.162;2022-08-30T16:37:47;0.10;;;0.10;;
65170;SDS011;51757;52.208;5.162;2022-08-30T16:40:30;0.10;;;0.10;;
65170;SDS011;51757;52.208;5.162;2022-08-30T16:42:59;0.10;;;0.10;;
65170;SDS011;51757;52.208;5.162;2022-08-30T16:45:35;0.10;;;0.10;;
65170;SDS011;51757;52.208;5.162;2022-08-30T16:48:10;0.10;;;0.10;;
65170;SDS011;51757;52.208;5.162;2022-08-30T16:50:43;0.00;;;0.00;;
65170;SDS011;51757;52.208;5.162;2022-08-30T16:53:24;0.10;;;0.10;;
65170;SDS011;51757;52.208;5.162;2022-08-30T16:55:52;0.08;;;0.08;;
65170;SDS011;51757;52.208;5.162;2022-08-30T16:58:20;0.00;;;0.00;;
65170;SDS011;51757;52.208;5.162;2022-08-30T17:00:51;0.00;;;0.00;;
65170;SDS011;51757;52.208;5.162;2022-08-30T17:03:27;0.00;;;0.00;;
65170;SDS011;51757;52.208;5.162;2022-08-30T17:06:03;0.00;;;0.00;;
65170;SDS011;51757;52.208;5.162;2022-08-30T17:08:36;0.00;;;0.00;;
65170;SDS011;51757;52.208;5.162;2022-08-30T17:11:04;0.00;;;0.00;;
65170;SDS011;51757;52.208;5.162;2022-08-30T17:13:44;0.00;;;0.00;;
65170;SDS011;51757;52.208;5.162;2022-08-30T17:16:13;0.10;;;0.10;;
65170;SDS011;51757;52.208;5.162;2022-08-30T17:18:41;0.10;;;0.10;;
65170;SDS011;51757;52.208;5.162;2022-08-30T17:21:22;0.00;;;0.00;;
65170;SDS011;51757;52.208;5.162;2022-08-30T17:23:55;0.10;;;0.10;;
65170;SDS011;51757;52.208;5.162;2022-08-30T17:26:39;0.10;;;0.10;;
65170;SDS011;51757;52.208;5.162;2022-08-30T17:29:17;0.00;;;0.00;;
65170;SDS011;51757;52.208;5.162;2022-08-30T17:31:45;0.00;;;0.00;;
65170;SDS011;51757;52.208;5.162;2022-08-30T17:34:14;0.00;;;0.00;;
65170;SDS011;51757;52.208;5.162;2022-08-30T17:36:43;0.00;;;0.00;;
65170;SDS011;51757;52.208;5.162;2022-08-30T17:42:06;0.00;;;0.00;;
65170;SDS011;51757;52.208;5.162;2022-08-30T17:44:51;0.00;;;0.00;;